Time,TemperatureF,DewpointF,PressureIn,WindDirection,WindDirectionDegrees,WindSpeedMPH,WindSpeedGustMPH,Humidity,HourlyPrecipIn,Conditions,Clouds,dailyrainin,SoftwareType,DateUTC
2014-07-26 00:01:00,70.0,64.6,29.89,WSW,253,1.0,6.0,83,0.00,,---,0.00,VWS V14.00,2014-07-26 06:01:00,
2014-07-26 00:07:00,70.5,64.4,29.89,WSW,252,4.0,5.0,81,0.00,,---,0.00,VWS V14.00,2014-07-26 06:07:00,
2014-07-26 00:13:00,71.0,63.8,29.89,WSW,250,1.0,4.0,78,0.00,,---,0.00,VWS V14.00,2014-07-26 06:13:00,
2014-07-26 00:19:00,71.4,63.8,29.89,WSW,250,2.0,4.0,77,0.00,,---,0.00,VWS V14.00,2014-07-26 06:19:00,
2014-07-26 00:25:00,71.5,63.9,29.89,WSW,250,2.0,5.0,77,0.00,,---,0.00,VWS V14.00,2014-07-26 06:25:00,
2014-07-26 00:31:00,71.4,63.8,29.89,WSW,249,3.0,5.0,77,0.00,,---,0.00,VWS V14.00,2014-07-26 06:31:00,
2014-07-26 00:36:00,71.4,63.5,29.89,WSW,248,2.0,5.0,76,0.00,,---,0.00,VWS V14.00,2014-07-26 06:36:00,
2014-07-26 00:41:00,71.6,63.6,29.89,WSW,245,6.0,6.0,76,0.00,,---,0.00,VWS V14.00,2014-07-26 06:41:00,
2014-07-26 00:46:00,71.7,63.7,29.89,WSW,244,4.0,6.0,76,0.00,,---,0.00,VWS V14.00,2014-07-26 06:46:00,
2014-07-26 00:51:00,71.6,63.6,29.89,WSW,246,5.0,7.0,76,0.00,,---,0.00,VWS V14.00,2014-07-26 06:51:00,
2014-07-26 00:56:00,71.4,63.8,29.89,WSW,249,4.0,7.0,77,0.00,,---,0.00,VWS V14.00,2014-07-26 06:56:00,
2014-07-26 01:01:00,71.3,63.7,29.89,WSW,250,1.0,4.0,77,0.00,,---,0.00,VWS V14.00,2014-07-26 07:01:00,
2014-07-26 01:06:00,71.0,63.8,29.89,WSW,249,0.0,1.0,78,0.00,,---,0.00,VWS V14.00,2014-07-26 07:06:00,
2014-07-26 01:11:00,70.8,63.6,29.89,WSW,249,0.0,0.0,78,0.00,,---,0.00,VWS V14.00,2014-07-26 07:11:00,
2014-07-26 01:16:00,70.7,63.9,29.89,WSW,250,0.0,0.0,79,0.00,,---,0.00,VWS V14.00,2014-07-26 07:16:00,
2014-07-26 01:21:00,70.6,63.4,29.89,WSW,250,0.0,0.0,78,0.00,,---,0.00,VWS V14.00,2014-07-26 07:21:00,
2014-07-26 01:26:00,70.7,63.5,29.89,WSW,250,0.0,0.0,78,0.00,,---,0.00,VWS V14.00,2014-07-26 07:26:00,
2014-07-26 01:31:00,70.8,63.6,29.89,WSW,249,0.0,0.0,78,0.00,,---,0.00,VWS V14.00,2014-07-26 07:31:00,
2014-07-26 01:38:00,70.5,63.7,29.89,WSW,249,3.0,4.0,79,0.00,,---,0.00,VWS V14.00,2014-07-26 07:38:00,
2014-07-26 01:44:00,70.2,63.8,29.89,WSW,249,0.0,0.0,80,0.00,,---,0.00,VWS V14.00,2014-07-26 07:44:00,
2014-07-26 01:50:00,70.0,63.5,29.89,WSW,249,0.0,0.0,80,0.00,,---,0.00,VWS V14.00,2014-07-26 07:50:00,
2014-07-26 01:56:00,69.8,63.7,29.89,WSW,249,0.0,0.0,81,0.00,,---,0.00,VWS V14.00,2014-07-26 07:56:00,
2014-07-26 02:01:00,69.8,63.7,29.89,WSW,250,0.0,0.0,81,0.00,,---,0.00,VWS V14.00,2014-07-26 08:01:00,
2014-07-26 02:06:00,69.5,63.8,29.89,WSW,249,0.0,0.0,82,0.00,,---,0.00,VWS V14.00,2014-07-26 08:06:00,
2014-07-26 02:11:00,69.3,63.9,29.89,WSW,250,0.0,0.0,83,0.00,,---,0.00,VWS V14.00,2014-07-26 08:11:00,
2014-07-26 02:16:00,69.1,63.4,29.89,WSW,250,0.0,0.0,82,0.00,,---,0.00,VWS V14.00,2014-07-26 08:16:00,
2014-07-26 02:21:00,69.1,63.7,29.89,WSW,249,3.0,3.0,83,0.00,,---,0.00,VWS V14.00,2014-07-26 08:21:00,
2014-07-26 02:28:00,68.4,63.4,29.89,South,171,2.0,4.0,84,0.00,,---,0.00,VWS V14.00,2014-07-26 08:28:00,
2014-07-26 02:34:00,68.0,63.0,29.89,South,171,2.0,3.0,84,0.00,,---,0.00,VWS V14.00,2014-07-26 08:34:00,
2014-07-26 02:40:00,68.1,62.4,29.89,South,171,1.0,2.0,82,0.00,,---,0.00,VWS V14.00,2014-07-26 08:40:00,
2014-07-26 02:46:00,67.9,62.5,29.89,South,171,0.0,2.0,83,0.00,,---,0.00,VWS V14.00,2014-07-26 08:46:00,
2014-07-26 02:51:00,67.5,62.2,29.89,South,171,4.0,4.0,83,0.00,,---,0.00,VWS V14.00,2014-07-26 08:51:00,
2014-07-26 02:56:00,67.9,61.9,29.89,South,172,3.0,4.0,81,0.00,,---,0.00,VWS V14.00,2014-07-26 08:56:00,
2014-07-26 03:02:00,67.7,61.3,29.89,South,172,4.0,4.0,80,0.00,,---,0.00,VWS V14.00,2014-07-26 09:02:00,
2014-07-26 03:08:00,67.7,61.3,29.89,South,172,0.0,3.0,80,0.00,,---,0.00,VWS V14.00,2014-07-26 09:08:00,
2014-07-26 03:15:00,67.7,61.3,29.89,South,172,0.0,0.0,80,0.00,,---,0.00,VWS V14.00,2014-07-26 09:15:00,